METAR v bližini

 

LJLJ - Ljubljana/Brnik, Slovenia
Oddaljenost od postaje: W 41km
Podatki zajeti: 21/10/2020 23:00
Rahlo oblačno
Rahlo oblačno
 Veter iz smeri WSW
Veter: WSW 7 km/h
Temperatura: 12°C
Rosišče: 7°C
Vlažnost: 72%
Tlak: 1021 hPa
Oblačnost: Rahlo oblačno
Vidljivost: 10 km
Podrobnosti o oblakih: Rahlo oblačno 1219 m
2020/10/21 21:00 LJLJ 212100Z 24004KT 200V280 9999 FEW040 12/07 Q1021 NOSIG
LJMB - Maribor, Slovenia
Oddaljenost od postaje: NE 63km
Podatki zajeti: 21/10/2020 23:00
Jasno
Jasno
 Veter iz smeri SSW
Veter: SSW 22 km/h
Temperatura: 13°C
Rosišče: 6°C
Vlažnost: 63%
Tlak: 1016 hPa
Oblačnost: Jasno
Vidljivost: 10 km
2020/10/21 21:00 LJMB 212100Z AUTO 21012KT 9999 NCD 13/06 Q1016
 
LJPZ - Portoroz, Slovenia
Oddaljenost od postaje: SW 130km
Podatki zajeti: 21/10/2020 23:00
Meglica, Jasno
Meglica, Jasno
 Veter iz smeri SE
Veter: SE 7 km/h
Temperatura: 11°C
Rosišče: 11°C
Vlažnost: 100%
Tlak: 1024 hPa
Stanje: Meglica
Oblačnost: Jasno
Vidljivost: 5 km
2020/10/21 21:00 LJPZ 212100Z AUTO 13004KT 4600 BR NCD 11/11 Q1024
LJCE - Cerklje, Slovenia
Oddaljenost od postaje: ESE 49km
Podatki zajeti: 21/10/2020 23:00
Jasno
Jasno
 Veter iz smeri WSW
Veter: WSW 11 km/h
Temperatura: 11°C
Rosišče: 7°C
Vlažnost: 77%
Tlak: 1020 hPa
Oblačnost: Jasno
Vidljivost: 10 km
2020/10/21 21:00 LJCE 212100Z AUTO 24006KT 9999 NCD 11/07 Q1020
 
LDZA - Zagreb/Pleso, Croatia
Oddaljenost od postaje: ESE 96km
Podatki zajeti: 21/10/2020 23:00
Jasno
Jasno
 Veter iz smeri SW
Veter: SW 17 km/h
Temperatura: 12°C
Rosišče: 7°C
Vlažnost: 72%
Tlak: 1020 hPa
Stanje: Jasno
Vidljivost: večja od 10 km
2020/10/21 21:00 LDZA 212100Z 23009KT 190V260 CAVOK 12/07 Q1020 NOSIG
LDRI - Rijeka/Omisalj, Croatia
Oddaljenost od postaje: SSW 109km
Podatki zajeti: 21/10/2020 23:00
Jasno
Jasno
 Veter iz smeri ESE
Veter: ESE 6 km/h
Temperatura: 12°C
Rosišče: 11°C
Vlažnost: 94%
Tlak: 1024 hPa
Stanje: Jasno
Vidljivost: večja od 10 km
2020/10/21 21:00 LDRI 212100Z 12003KT CAVOK 12/11 Q1024
 
LDPL - Pula, Croatia
Oddaljenost od postaje: SSW 164km
Podatki zajeti: 21/10/2020 23:00
Jasno
Jasno
 Veter iz smeri ENE
Veter: ENE 6 km/h
Temperatura: 11°C
Rosišče: 10°C
Vlažnost: 94%
Tlak: 1024 hPa
Stanje: Jasno
Vidljivost: večja od 10 km
2020/10/21 21:00 LDPL 212100Z 06003KT CAVOK 11/10 Q1024 NOSIG
LOWK - Klagenfurt(Civ/M, Austria
Oddaljenost od postaje: NW 76km
Podatki zajeti: 21/10/2020 22:50
Jasno
Jasno
 Veter iz smeri spremenljiv
Veter: spremenljiv 2 km/h
Temperatura: 9°C
Rosišče: 6°C
Vlažnost: 82%
Tlak: 1019 hPa
Oblačnost: Jasno
Vidljivost: 10 km
2020/10/21 20:50 LOWK 212050Z AUTO VRB01KT 9999 NCD 09/06 Q1019 NOSIG
 
LOWG - Graz (mil/Civ), Austria
Oddaljenost od postaje: NNE 100km
Podatki zajeti: 21/10/2020 22:50
Megla v pasovih, Rahlo oblačno
Megla v pasovih, Rahlo oblačno
 Veter iz smeri spremenljiv
Veter: spremenljiv 4 km/h
Temperatura: 6°C
Rosišče: 6°C
Vlažnost: 100%
Tlak: 1016 hPa
Stanje: Patches of Fog
Oblačnost: Rahlo oblačno
Vidljivost: 5 km
Podrobnosti o oblakih: Rahlo oblačno 61 m
2020/10/21 20:50 LOWG 212050Z VRB02KT 4500 0400N R17/0600N R35/P1500U BCFG FEW002 06/06 Q1016 BECMG 0500 FG
LOAN - Wr.neustadt East, Austria
Oddaljenost od postaje: NNE 212km
Podatki zajeti: 21/10/2020 18:00
Ni posodobljen
Rahlo oblačno
Rahlo oblačno
 Veter iz smeri WSW
Veter: WSW 2 km/h
Oblačnost: Rahlo oblačno
Podrobnosti o oblakih: Rahlo oblačno 914 m
2020/10/21 16:00 LOAN 211600Z 24001KT 10KM FEW030CU
 
LIPQ - Ronchi Legionari, Italy
Oddaljenost od postaje: SW 35km
Podatki zajeti: 21/10/2020 22:50
Megla, Oblačno
Megla, Oblačno
 Veter iz smeri N
Veter: N 6 km/h
Temperatura: 10°C
Rosišče: 10°C
Vlažnost: 100%
Tlak: 1024 hPa
Stanje: Megla
Oblačnost: Oblačno
Vidljivost: 1 km
Podrobnosti o oblakih: Oblačno 274 m
2020/10/21 20:50 LIPQ 212050Z AUTO 36003KT 0500 R09/1300D FG VV009 10/10 Q1024
LIVT - Trieste, Italy
Oddaljenost od postaje: WSW 109km
Podatki zajeti: 21/10/2020 19:55
Ni posodobljen
Delno oblačno
Delno oblačno
 Veter iz smeri spremenljiv
Veter: spremenljiv 0 km/h
Temperatura: 16°C
Rosišče: 15°C
Vlažnost: 94%
Tlak: 1023 hPa
Oblačnost: Delno oblačno
Vidljivost: 10 km
Podrobnosti o oblakih: Delno oblačno 914 m
2020/10/21 17:55 LIVT 211755Z /////KT 9999 SCT030 16/15 Q1023 RMK SCT QUK / QUL / VIS MAR 20 KM VIS MIN 9999
 
LIVO - Tarvisio, Italy
Oddaljenost od postaje: NNW 49km
Podatki zajeti: 21/10/2020 19:55
Ni posodobljen
Jasno
Jasno
 Veter iz smeri WNW
Veter: WNW 6 km/h
Temperatura: 10°C
Rosišče: 6°C
Vlažnost: 76%
Tlak: 1021 hPa
Stanje: Jasno
Vidljivost: večja od 10 km
2020/10/21 17:55 LIVO 211755Z 29003KT CAVOK 10/06 Q1021 RMK BKN BKN200 VIS MIN 9999
LIPZ - Venezia/Tessera, Italy
Oddaljenost od postaje: WSW 217km
Podatki zajeti: 21/10/2020 22:50
Megla, Delno oblačno
Megla, Delno oblačno
 Veter iz smeri SSW
Veter: SSW 7 km/h
Temperatura: 13°C
Rosišče: 12°C
Vlažnost: 94%
Tlak: 1024 hPa
Stanje: Megla
Oblačnost: Delno oblačno
Vidljivost: 0 km
2020/10/21 20:50 LIPZ 212050Z 21004KT 190V260 0400 R04R/1100D FG NSC 13/12 Q1024 BECMG 0300 FG
 
LHSM - Balaton, Hungary
Oddaljenost od postaje: ENE 177km
Podatki zajeti: 21/10/2020 22:45
Jasno
Jasno
 Veter iz smeri S
Veter: S 15 km/h
Temperatura: 12°C
Rosišče: 8°C
Vlažnost: 77%
Tlak: 1017 hPa
Stanje: Jasno
Vidljivost: večja od 10 km
2020/10/21 20:45 LHSM 212045Z AUTO 19008KT CAVOK 12/08 Q1017